sensor_id;sensor_type;location;lat;lon;timestamp;P1;durP1;ratioP1;P2;durP2;ratioP2
58878;SDS011;44660;42.664;23.266;2023-02-23T00:01:10;18.35;;;7.35;;
58878;SDS011;44660;42.664;23.266;2023-02-23T00:03:37;15.27;;;6.90;;
58878;SDS011;44660;42.664;23.266;2023-02-23T00:06:02;13.88;;;7.07;;
58878;SDS011;44660;42.664;23.266;2023-02-23T00:08:28;21.08;;;7.53;;
58878;SDS011;44660;42.664;23.266;2023-02-23T00:10:54;15.65;;;7.32;;
58878;SDS011;44660;42.664;23.266;2023-02-23T00:13:22;13.77;;;7.30;;
58878;SDS011;44660;42.664;23.266;2023-02-23T00:15:48;13.98;;;7.88;;
58878;SDS011;44660;42.664;23.266;2023-02-23T00:18:13;14.23;;;6.93;;
58878;SDS011;44660;42.664;23.266;2023-02-23T00:20:39;13.40;;;6.95;;
58878;SDS011;44660;42.664;23.266;2023-02-23T00:23:10;17.73;;;7.70;;
58878;SDS011;44660;42.664;23.266;2023-02-23T00:25:36;15.38;;;7.32;;
58878;SDS011;44660;42.664;23.266;2023-02-23T00:28:03;15.82;;;8.30;;
58878;SDS011;44660;42.664;23.266;2023-02-23T00:30:31;19.33;;;8.70;;
58878;SDS011;44660;42.664;23.266;2023-02-23T00:32:56;15.90;;;7.85;;
58878;SDS011;44660;42.664;23.266;2023-02-23T00:35:22;16.08;;;9.23;;
58878;SDS011;44660;42.664;23.266;2023-02-23T00:37:49;12.80;;;7.53;;
58878;SDS011;44660;42.664;23.266;2023-02-23T00:40:15;11.07;;;6.70;;
58878;SDS011;44660;42.664;23.266;2023-02-23T00:42:42;12.88;;;6.50;;
58878;SDS011;44660;42.664;23.266;2023-02-23T00:45:09;20.73;;;10.88;;
58878;SDS011;44660;42.664;23.266;2023-02-23T00:47:37;53.08;;;26.60;;
58878;SDS011;44660;42.664;23.266;2023-02-23T00:50:06;18.70;;;9.45;;
58878;SDS011;44660;42.664;23.266;2023-02-23T00:52:37;14.43;;;7.68;;
58878;SDS011;44660;42.664;23.266;2023-02-23T00:55:05;13.00;;;7.60;;
58878;SDS011;44660;42.664;23.266;2023-02-23T00:57:35;13.00;;;7.15;;
58878;SDS011;44660;42.664;23.266;2023-02-23T01:00:02;12.93;;;6.53;;
58878;SDS011;44660;42.664;23.266;2023-02-23T01:02:42;13.02;;;6.57;;
58878;SDS011;44660;42.664;23.266;2023-02-23T01:05:07;13.60;;;5.93;;
58878;SDS011;44660;42.664;23.266;2023-02-23T01:07:35;13.23;;;6.65;;
58878;SDS011;44660;42.664;23.266;2023-02-23T01:10:00;15.07;;;6.18;;
58878;SDS011;44660;42.664;23.266;2023-02-23T01:12:26;12.10;;;6.45;;
58878;SDS011;44660;42.664;23.266;2023-02-23T01:14:51;12.50;;;7.28;;
58878;SDS011;44660;42.664;23.266;2023-02-23T01:17:17;17.02;;;6.63;;
58878;SDS011;44660;42.664;23.266;2023-02-23T01:19:42;14.75;;;6.75;;
58878;SDS011;44660;42.664;23.266;2023-02-23T01:22:08;13.07;;;7.15;;
58878;SDS011;44660;42.664;23.266;2023-02-23T01:24:33;17.58;;;6.55;;
58878;SDS011;44660;42.664;23.266;2023-02-23T01:26:59;12.05;;;6.15;;
58878;SDS011;44660;42.664;23.266;2023-02-23T01:29:25;10.63;;;5.75;;
58878;SDS011;44660;42.664;23.266;2023-02-23T01:31:50;10.25;;;6.10;;
58878;SDS011;44660;42.664;23.266;2023-02-23T01:34:16;9.02;;;5.75;;
58878;SDS011;44660;42.664;23.266;2023-02-23T01:36:42;13.15;;;5.88;;
58878;SDS011;44660;42.664;23.266;2023-02-23T01:39:15;11.25;;;5.40;;
58878;SDS011;44660;42.664;23.266;2023-02-23T01:41:42;10.73;;;5.95;;
58878;SDS011;44660;42.664;23.266;2023-02-23T01:46:40;10.20;;;5.20;;
58878;SDS011;44660;42.664;23.266;2023-02-23T01:49:26;10.23;;;5.25;;
58878;SDS011;44660;42.664;23.266;2023-02-23T01:54:27;13.07;;;5.70;;
58878;SDS011;44660;42.664;23.266;2023-02-23T01:56:58;13.13;;;5.72;;
58878;SDS011;44660;42.664;23.266;2023-02-23T01:59:37;14.63;;;5.82;;
58878;SDS011;44660;42.664;23.266;2023-02-23T02:02:06;9.60;;;6.03;;
58878;SDS011;44660;42.664;23.266;2023-02-23T02:04:33;12.20;;;6.57;;
58878;SDS011;44660;42.664;23.266;2023-02-23T02:07:17;15.75;;;6.47;;
58878;SDS011;44660;42.664;23.266;2023-02-23T02:09:46;12.15;;;6.78;;
58878;SDS011;44660;42.664;23.266;2023-02-23T02:12:33;12.30;;;6.45;;
58878;SDS011;44660;42.664;23.266;2023-02-23T02:14:59;14.88;;;7.70;;
58878;SDS011;44660;42.664;23.266;2023-02-23T02:18:02;15.35;;;8.45;;
58878;SDS011;44660;42.664;23.266;2023-02-23T02:23:13;12.38;;;7.25;;
58878;SDS011;44660;42.664;23.266;2023-02-23T02:26:17;12.00;;;6.50;;
58878;SDS011;44660;42.664;23.266;2023-02-23T02:47:32;15.70;;;9.63;;
58878;SDS011;44660;42.664;23.266;2023-02-23T02:52:38;14.25;;;7.50;;
58878;SDS011;44660;42.664;23.266;2023-02-23T02:55:14;11.38;;;6.55;;
58878;SDS011;44660;42.664;23.266;2023-02-23T02:57:48;9.25;;;5.68;;
58878;SDS011;44660;42.664;23.266;2023-02-23T03:00:16;12.10;;;6.57;;
58878;SDS011;44660;42.664;23.266;2023-02-23T03:03:02;11.88;;;6.40;;
58878;SDS011;44660;42.664;23.266;2023-02-23T03:05:50;14.98;;;7.13;;
58878;SDS011;44660;42.664;23.266;2023-02-23T03:11:24;37.05;;;13.57;;
58878;SDS011;44660;42.664;23.266;2023-02-23T03:14:26;53.00;;;18.35;;
58878;SDS011;44660;42.664;23.266;2023-02-23T03:26:35;52.20;;;16.58;;
58878;SDS011;44660;42.664;23.266;2023-02-23T03:32:27;36.45;;;13.43;;
58878;SDS011;44660;42.664;23.266;2023-02-23T03:35:23;25.80;;;11.30;;
58878;SDS011;44660;42.664;23.266;2023-02-23T03:38:17;23.45;;;10.32;;
58878;SDS011;44660;42.664;23.266;2023-02-23T03:41:06;24.92;;;11.80;;
58878;SDS011;44660;42.664;23.266;2023-02-23T03:43:58;23.30;;;10.15;;
58878;SDS011;44660;42.664;23.266;2023-02-23T03:46:47;19.08;;;8.93;;
58878;SDS011;44660;42.664;23.266;2023-02-23T03:49:33;15.93;;;8.13;;
58878;SDS011;44660;42.664;23.266;2023-02-23T03:52:23;13.57;;;8.00;;
58878;SDS011;44660;42.664;23.266;2023-02-23T03:55:15;14.88;;;7.72;;
58878;SDS011;44660;42.664;23.266;2023-02-23T03:58:01;14.48;;;8.50;;
58878;SDS011;44660;42.664;23.266;2023-02-23T04:00:51;16.35;;;8.63;;
58878;SDS011;44660;42.664;23.266;2023-02-23T04:03:39;14.00;;;8.00;;
58878;SDS011;44660;42.664;23.266;2023-02-23T04:06:27;12.80;;;8.18;;
58878;SDS011;44660;42.664;23.266;2023-02-23T04:09:18;16.20;;;8.18;;
58878;SDS011;44660;42.664;23.266;2023-02-23T04:12:08;18.20;;;8.77;;
58878;SDS011;44660;42.664;23.266;2023-02-23T04:17:30;17.92;;;9.27;;
58878;SDS011;44660;42.664;23.266;2023-02-23T04:19:56;15.88;;;8.57;;
58878;SDS011;44660;42.664;23.266;2023-02-23T04:22:22;17.05;;;8.13;;
58878;SDS011;44660;42.664;23.266;2023-02-23T04:24:47;15.93;;;8.20;;
58878;SDS011;44660;42.664;23.266;2023-02-23T04:27:14;14.30;;;8.10;;
58878;SDS011;44660;42.664;23.266;2023-02-23T04:29:40;18.17;;;8.55;;
58878;SDS011;44660;42.664;23.266;2023-02-23T04:32:06;19.90;;;9.80;;
58878;SDS011;44660;42.664;23.266;2023-02-23T04:34:36;18.13;;;9.65;;
58878;SDS011;44660;42.664;23.266;2023-02-23T04:37:01;19.60;;;10.50;;
58878;SDS011;44660;42.664;23.266;2023-02-23T04:39:27;17.45;;;10.10;;
58878;SDS011;44660;42.664;23.266;2023-02-23T04:41:52;17.38;;;10.05;;
58878;SDS011;44660;42.664;23.266;2023-02-23T04:44:18;18.42;;;10.00;;
58878;SDS011;44660;42.664;23.266;2023-02-23T04:46:43;15.82;;;9.38;;
58878;SDS011;44660;42.664;23.266;2023-02-23T04:49:09;18.25;;;9.85;;
58878;SDS011;44660;42.664;23.266;2023-02-23T04:51:34;19.90;;;11.07;;
58878;SDS011;44660;42.664;23.266;2023-02-23T04:54:01;23.58;;;12.15;;
58878;SDS011;44660;42.664;23.266;2023-02-23T04:56:27;18.67;;;10.70;;
58878;SDS011;44660;42.664;23.266;2023-02-23T04:58:53;18.45;;;10.32;;
58878;SDS011;44660;42.664;23.266;2023-02-23T05:01:19;22.90;;;11.45;;
58878;SDS011;44660;42.664;23.266;2023-02-23T05:03:46;22.08;;;11.65;;
58878;SDS011;44660;42.664;23.266;2023-02-23T05:06:13;27.45;;;13.65;;
58878;SDS011;44660;42.664;23.266;2023-02-23T05:08:39;31.92;;;16.65;;
58878;SDS011;44660;42.664;23.266;2023-02-23T05:11:05;32.83;;;16.75;;
58878;SDS011;44660;42.664;23.266;2023-02-23T05:13:31;33.15;;;16.10;;
58878;SDS011;44660;42.664;23.266;2023-02-23T05:15:57;27.30;;;14.23;;
58878;SDS011;44660;42.664;23.266;2023-02-23T05:18:23;26.35;;;13.35;;
58878;SDS011;44660;42.664;23.266;2023-02-23T05:20:50;28.83;;;13.60;;
58878;SDS011;44660;42.664;23.266;2023-02-23T05:23:17;28.20;;;14.63;;
58878;SDS011;44660;42.664;23.266;2023-02-23T05:25:43;33.22;;;16.70;;
58878;SDS011;44660;42.664;23.266;2023-02-23T05:28:09;33.53;;;17.20;;
58878;SDS011;44660;42.664;23.266;2023-02-23T05:30:34;29.77;;;14.75;;
58878;SDS011;44660;42.664;23.266;2023-02-23T05:33:00;34.85;;;15.75;;
58878;SDS011;44660;42.664;23.266;2023-02-23T05:35:26;27.35;;;14.73;;
58878;SDS011;44660;42.664;23.266;2023-02-23T05:37:52;25.73;;;13.68;;
58878;SDS011;44660;42.664;23.266;2023-02-23T05:40:17;28.52;;;14.20;;
58878;SDS011;44660;42.664;23.266;2023-02-23T05:42:43;23.35;;;12.02;;
58878;SDS011;44660;42.664;23.266;2023-02-23T05:45:09;24.10;;;12.07;;
58878;SDS011;44660;42.664;23.266;2023-02-23T05:47:35;19.02;;;11.63;;
58878;SDS011;44660;42.664;23.266;2023-02-23T05:50:06;18.65;;;11.45;;
58878;SDS011;44660;42.664;23.266;2023-02-23T05:52:42;26.65;;;13.98;;
58878;SDS011;44660;42.664;23.266;2023-02-23T05:55:09;23.48;;;12.70;;
58878;SDS011;44660;42.664;23.266;2023-02-23T05:57:35;20.58;;;12.38;;
58878;SDS011;44660;42.664;23.266;2023-02-23T06:00:02;22.65;;;13.55;;
58878;SDS011;44660;42.664;23.266;2023-02-23T06:02:28;24.33;;;12.48;;
58878;SDS011;44660;42.664;23.266;2023-02-23T06:04:54;27.83;;;13.45;;
58878;SDS011;44660;42.664;23.266;2023-02-23T06:07:22;45.80;;;20.17;;
58878;SDS011;44660;42.664;23.266;2023-02-23T06:09:48;71.50;;;37.33;;
58878;SDS011;44660;42.664;23.266;2023-02-23T06:12:13;92.20;;;44.83;;
58878;SDS011;44660;42.664;23.266;2023-02-23T06:14:39;65.47;;;35.17;;
58878;SDS011;44660;42.664;23.266;2023-02-23T06:17:05;74.07;;;38.25;;
58878;SDS011;44660;42.664;23.266;2023-02-23T06:19:31;80.30;;;41.90;;
58878;SDS011;44660;42.664;23.266;2023-02-23T06:21:57;59.45;;;31.15;;
58878;SDS011;44660;42.664;23.266;2023-02-23T06:24:27;35.40;;;19.20;;
58878;SDS011;44660;42.664;23.266;2023-02-23T06:26:53;57.20;;;31.15;;
58878;SDS011;44660;42.664;23.266;2023-02-23T06:29:19;64.85;;;33.42;;
58878;SDS011;44660;42.664;23.266;2023-02-23T06:31:44;60.42;;;33.40;;
58878;SDS011;44660;42.664;23.266;2023-02-23T06:34:09;31.88;;;17.15;;
58878;SDS011;44660;42.664;23.266;2023-02-23T06:36:35;28.48;;;14.38;;
58878;SDS011;44660;42.664;23.266;2023-02-23T06:39:02;28.73;;;13.35;;
58878;SDS011;44660;42.664;23.266;2023-02-23T06:41:28;24.33;;;12.88;;
58878;SDS011;44660;42.664;23.266;2023-02-23T06:43:55;23.25;;;12.70;;
58878;SDS011;44660;42.664;23.266;2023-02-23T06:46:20;23.50;;;12.52;;
58878;SDS011;44660;42.664;23.266;2023-02-23T06:48:46;24.98;;;13.45;;
58878;SDS011;44660;42.664;23.266;2023-02-23T06:51:12;24.33;;;13.45;;
58878;SDS011;44660;42.664;23.266;2023-02-23T06:53:37;29.13;;;14.93;;
58878;SDS011;44660;42.664;23.266;2023-02-23T06:56:03;30.42;;;14.40;;
58878;SDS011;44660;42.664;23.266;2023-02-23T06:58:29;38.65;;;18.65;;
58878;SDS011;44660;42.664;23.266;2023-02-23T07:00:55;37.53;;;18.63;;
58878;SDS011;44660;42.664;23.266;2023-02-23T07:03:24;30.50;;;16.40;;
58878;SDS011;44660;42.664;23.266;2023-02-23T07:05:50;25.17;;;15.15;;
58878;SDS011;44660;42.664;23.266;2023-02-23T07:08:17;27.48;;;14.50;;
58878;SDS011;44660;42.664;23.266;2023-02-23T07:10:44;31.40;;;14.25;;
58878;SDS011;44660;42.664;23.266;2023-02-23T07:13:13;27.90;;;14.18;;
58878;SDS011;44660;42.664;23.266;2023-02-23T07:15:39;31.23;;;15.15;;
58878;SDS011;44660;42.664;23.266;2023-02-23T07:18:05;31.38;;;17.13;;
58878;SDS011;44660;42.664;23.266;2023-02-23T07:20:31;29.13;;;16.73;;
58878;SDS011;44660;42.664;23.266;2023-02-23T07:22:58;28.88;;;16.55;;
58878;SDS011;44660;42.664;23.266;2023-02-23T07:25:27;30.10;;;16.75;;
58878;SDS011;44660;42.664;23.266;2023-02-23T07:27:53;43.83;;;21.70;;
58878;SDS011;44660;42.664;23.266;2023-02-23T07:30:19;31.85;;;17.88;;
58878;SDS011;44660;42.664;23.266;2023-02-23T07:32:48;38.78;;;23.20;;
58878;SDS011;44660;42.664;23.266;2023-02-23T07:35:15;34.90;;;17.88;;
58878;SDS011;44660;42.664;23.266;2023-02-23T07:37:40;32.75;;;17.55;;
58878;SDS011;44660;42.664;23.266;2023-02-23T07:40:06;35.58;;;17.35;;
58878;SDS011;44660;42.664;23.266;2023-02-23T07:42:32;30.55;;;17.05;;
58878;SDS011;44660;42.664;23.266;2023-02-23T07:44:57;34.63;;;17.17;;
58878;SDS011;44660;42.664;23.266;2023-02-23T07:47:24;32.88;;;16.77;;
58878;SDS011;44660;42.664;23.266;2023-02-23T07:49:55;33.25;;;16.85;;
58878;SDS011;44660;42.664;23.266;2023-02-23T07:52:26;28.83;;;15.88;;
58878;SDS011;44660;42.664;23.266;2023-02-23T07:54:52;32.08;;;17.00;;
58878;SDS011;44660;42.664;23.266;2023-02-23T07:57:18;36.95;;;17.23;;
58878;SDS011;44660;42.664;23.266;2023-02-23T07:59:44;28.98;;;16.98;;
58878;SDS011;44660;42.664;23.266;2023-02-23T08:02:11;33.08;;;16.75;;
58878;SDS011;44660;42.664;23.266;2023-02-23T08:04:38;31.17;;;17.63;;
58878;SDS011;44660;42.664;23.266;2023-02-23T08:07:04;34.38;;;16.45;;
58878;SDS011;44660;42.664;23.266;2023-02-23T08:09:30;35.10;;;16.85;;
58878;SDS011;44660;42.664;23.266;2023-02-23T08:11:56;28.67;;;17.45;;
58878;SDS011;44660;42.664;23.266;2023-02-23T08:14:22;28.67;;;15.68;;
58878;SDS011;44660;42.664;23.266;2023-02-23T08:16:48;32.10;;;16.48;;
58878;SDS011;44660;42.664;23.266;2023-02-23T08:19:14;24.88;;;15.75;;
58878;SDS011;44660;42.664;23.266;2023-02-23T08:21:39;24.48;;;15.77;;
58878;SDS011;44660;42.664;23.266;2023-02-23T08:24:07;23.70;;;14.73;;
58878;SDS011;44660;42.664;23.266;2023-02-23T08:26:34;23.00;;;13.70;;
58878;SDS011;44660;42.664;23.266;2023-02-23T08:29:00;29.42;;;12.98;;
58878;SDS011;44660;42.664;23.266;2023-02-23T08:31:26;24.85;;;13.40;;
58878;SDS011;44660;42.664;23.266;2023-02-23T08:33:51;21.13;;;12.95;;
58878;SDS011;44660;42.664;23.266;2023-02-23T08:36:17;18.92;;;12.65;;
58878;SDS011;44660;42.664;23.266;2023-02-23T08:38:44;19.27;;;11.63;;
58878;SDS011;44660;42.664;23.266;2023-02-23T08:41:10;25.20;;;11.48;;
58878;SDS011;44660;42.664;23.266;2023-02-23T08:43:36;22.55;;;11.73;;
58878;SDS011;44660;42.664;23.266;2023-02-23T08:46:03;17.85;;;11.00;;
58878;SDS011;44660;42.664;23.266;2023-02-23T08:48:30;15.18;;;10.45;;
58878;SDS011;44660;42.664;23.266;2023-02-23T08:50:56;18.23;;;11.45;;
58878;SDS011;44660;42.664;23.266;2023-02-23T08:53:22;20.00;;;10.37;;
58878;SDS011;44660;42.664;23.266;2023-02-23T08:55:54;15.98;;;9.85;;
58878;SDS011;44660;42.664;23.266;2023-02-23T08:58:24;16.10;;;10.50;;
58878;SDS011;44660;42.664;23.266;2023-02-23T09:00:50;13.77;;;10.27;;
58878;SDS011;44660;42.664;23.266;2023-02-23T09:03:16;14.13;;;10.30;;
58878;SDS011;44660;42.664;23.266;2023-02-23T09:05:41;16.48;;;10.40;;
58878;SDS011;44660;42.664;23.266;2023-02-23T09:08:08;18.42;;;10.18;;
58878;SDS011;44660;42.664;23.266;2023-02-23T09:10:33;12.20;;;9.68;;
58878;SDS011;44660;42.664;23.266;2023-02-23T09:12:59;17.15;;;8.20;;
58878;SDS011;44660;42.664;23.266;2023-02-23T09:15:25;23.67;;;9.07;;
58878;SDS011;44660;42.664;23.266;2023-02-23T09:17:50;12.57;;;9.25;;
58878;SDS011;44660;42.664;23.266;2023-02-23T09:20:16;15.88;;;8.73;;
58878;SDS011;44660;42.664;23.266;2023-02-23T09:22:42;13.05;;;8.93;;
58878;SDS011;44660;42.664;23.266;2023-02-23T09:25:17;15.77;;;7.95;;
58878;SDS011;44660;42.664;23.266;2023-02-23T09:27:46;10.95;;;8.55;;
58878;SDS011;44660;42.664;23.266;2023-02-23T09:30:13;12.75;;;8.60;;
58878;SDS011;44660;42.664;23.266;2023-02-23T09:32:51;12.10;;;9.00;;
58878;SDS011;44660;42.664;23.266;2023-02-23T09:35:17;10.90;;;8.95;;
58878;SDS011;44660;42.664;23.266;2023-02-23T09:37:52;17.75;;;10.05;;
58878;SDS011;44660;42.664;23.266;2023-02-23T09:40:20;13.95;;;9.68;;
58878;SDS011;44660;42.664;23.266;2023-02-23T09:45:28;21.67;;;9.38;;
58878;SDS011;44660;42.664;23.266;2023-02-23T09:48:15;12.85;;;9.43;;
58878;SDS011;44660;42.664;23.266;2023-02-23T09:50:42;20.77;;;9.73;;
58878;SDS011;44660;42.664;23.266;2023-02-23T09:56:02;23.33;;;11.68;;
58878;SDS011;44660;42.664;23.266;2023-02-23T09:58:34;18.25;;;10.20;;
58878;SDS011;44660;42.664;23.266;2023-02-23T10:03:29;14.48;;;9.38;;
58878;SDS011;44660;42.664;23.266;2023-02-23T10:05:59;15.05;;;9.68;;
58878;SDS011;44660;42.664;23.266;2023-02-23T10:08:41;16.45;;;10.77;;
58878;SDS011;44660;42.664;23.266;2023-02-23T10:13:58;15.68;;;10.70;;
58878;SDS011;44660;42.664;23.266;2023-02-23T10:16:59;20.35;;;13.25;;
58878;SDS011;44660;42.664;23.266;2023-02-23T10:19:40;19.80;;;12.68;;
58878;SDS011;44660;42.664;23.266;2023-02-23T10:22:24;17.27;;;13.30;;
58878;SDS011;44660;42.664;23.266;2023-02-23T10:24:53;18.23;;;13.35;;
58878;SDS011;44660;42.664;23.266;2023-02-23T10:27:26;26.42;;;13.40;;
58878;SDS011;44660;42.664;23.266;2023-02-23T10:30:01;24.67;;;14.88;;
58878;SDS011;44660;42.664;23.266;2023-02-23T10:32:39;19.38;;;13.25;;
58878;SDS011;44660;42.664;23.266;2023-02-23T10:35:10;21.73;;;15.98;;
58878;SDS011;44660;42.664;23.266;2023-02-23T10:37:38;21.17;;;14.18;;
58878;SDS011;44660;42.664;23.266;2023-02-23T10:40:04;23.42;;;14.00;;
58878;SDS011;44660;42.664;23.266;2023-02-23T10:42:30;25.33;;;14.18;;
58878;SDS011;44660;42.664;23.266;2023-02-23T10:44:59;21.83;;;14.40;;
58878;SDS011;44660;42.664;23.266;2023-02-23T10:47:26;28.45;;;13.95;;
58878;SDS011;44660;42.664;23.266;2023-02-23T10:49:55;22.60;;;13.20;;
58878;SDS011;44660;42.664;23.266;2023-02-23T11:00:53;25.67;;;15.65;;
58878;SDS011;44660;42.664;23.266;2023-02-23T11:03:22;29.02;;;18.17;;
58878;SDS011;44660;42.664;23.266;2023-02-23T11:05:52;22.42;;;16.55;;
58878;SDS011;44660;42.664;23.266;2023-02-23T11:13:29;14.57;;;10.70;;
58878;SDS011;44660;42.664;23.266;2023-02-23T11:16:00;22.02;;;10.65;;
58878;SDS011;44660;42.664;23.266;2023-02-23T11:18:29;19.55;;;10.77;;
58878;SDS011;44660;42.664;23.266;2023-02-23T11:20:55;19.83;;;11.13;;
58878;SDS011;44660;42.664;23.266;2023-02-23T11:23:26;18.70;;;10.68;;
58878;SDS011;44660;42.664;23.266;2023-02-23T11:25:57;17.85;;;9.63;;
58878;SDS011;44660;42.664;23.266;2023-02-23T11:28:29;20.55;;;12.80;;
58878;SDS011;44660;42.664;23.266;2023-02-23T11:31:00;17.63;;;10.60;;
58878;SDS011;44660;42.664;23.266;2023-02-23T11:33:31;16.23;;;9.25;;
58878;SDS011;44660;42.664;23.266;2023-02-23T11:36:11;13.52;;;9.25;;
58878;SDS011;44660;42.664;23.266;2023-02-23T11:38:39;12.80;;;8.10;;
58878;SDS011;44660;42.664;23.266;2023-02-23T11:41:26;12.90;;;7.70;;
58878;SDS011;44660;42.664;23.266;2023-02-23T11:43:51;14.18;;;8.15;;
58878;SDS011;44660;42.664;23.266;2023-02-23T11:46:21;11.23;;;7.57;;
58878;SDS011;44660;42.664;23.266;2023-02-23T11:51:24;17.75;;;8.15;;
58878;SDS011;44660;42.664;23.266;2023-02-23T11:53:53;11.70;;;7.50;;
58878;SDS011;44660;42.664;23.266;2023-02-23T11:56:19;13.18;;;7.60;;
58878;SDS011;44660;42.664;23.266;2023-02-23T11:58:47;14.00;;;7.65;;
58878;SDS011;44660;42.664;23.266;2023-02-23T12:01:16;13.93;;;8.02;;
58878;SDS011;44660;42.664;23.266;2023-02-23T12:06:29;14.50;;;8.82;;
58878;SDS011;44660;42.664;23.266;2023-02-23T12:09:00;15.38;;;7.65;;
58878;SDS011;44660;42.664;23.266;2023-02-23T12:11:36;21.13;;;8.00;;
58878;SDS011;44660;42.664;23.266;2023-02-23T12:17:21;25.65;;;11.32;;
58878;SDS011;44660;42.664;23.266;2023-02-23T12:22:30;23.25;;;12.85;;
58878;SDS011;44660;42.664;23.266;2023-02-23T12:25:03;18.52;;;11.07;;
58878;SDS011;44660;42.664;23.266;2023-02-23T12:33:25;9.82;;;5.80;;
58878;SDS011;44660;42.664;23.266;2023-02-23T12:36:03;17.20;;;8.00;;
58878;SDS011;44660;42.664;23.266;2023-02-23T12:39:51;12.10;;;6.68;;
58878;SDS011;44660;42.664;23.266;2023-02-23T12:45:03;9.32;;;5.85;;
58878;SDS011;44660;42.664;23.266;2023-02-23T12:47:43;11.20;;;5.22;;
58878;SDS011;44660;42.664;23.266;2023-02-23T12:50:19;10.52;;;5.20;;
58878;SDS011;44660;42.664;23.266;2023-02-23T12:53:42;14.50;;;6.38;;
58878;SDS011;44660;42.664;23.266;2023-02-23T12:59:10;10.70;;;5.43;;
58878;SDS011;44660;42.664;23.266;2023-02-23T13:01:41;10.23;;;5.63;;
58878;SDS011;44660;42.664;23.266;2023-02-23T13:04:27;10.45;;;5.07;;
58878;SDS011;44660;42.664;23.266;2023-02-23T13:10:19;19.45;;;5.40;;
58878;SDS011;44660;42.664;23.266;2023-02-23T13:13:03;11.07;;;5.40;;
58878;SDS011;44660;42.664;23.266;2023-02-23T13:15:58;15.15;;;5.72;;
58878;SDS011;44660;42.664;23.266;2023-02-23T13:18:34;10.05;;;4.78;;
58878;SDS011;44660;42.664;23.266;2023-02-23T13:21:07;13.90;;;6.05;;
58878;SDS011;44660;42.664;23.266;2023-02-23T13:26:32;13.27;;;6.00;;
58878;SDS011;44660;42.664;23.266;2023-02-23T13:29:01;12.48;;;6.07;;
58878;SDS011;44660;42.664;23.266;2023-02-23T13:31:35;11.63;;;6.25;;
58878;SDS011;44660;42.664;23.266;2023-02-23T13:34:03;9.38;;;6.30;;
58878;SDS011;44660;42.664;23.266;2023-02-23T13:36:33;19.02;;;8.65;;
58878;SDS011;44660;42.664;23.266;2023-02-23T13:44:40;14.52;;;6.68;;
58878;SDS011;44660;42.664;23.266;2023-02-23T13:50:06;14.27;;;5.90;;
58878;SDS011;44660;42.664;23.266;2023-02-23T13:52:45;13.77;;;5.90;;
58878;SDS011;44660;42.664;23.266;2023-02-23T13:57:55;10.07;;;5.60;;
58878;SDS011;44660;42.664;23.266;2023-02-23T14:00:29;12.60;;;5.60;;
58878;SDS011;44660;42.664;23.266;2023-02-23T14:02:55;10.05;;;5.47;;
58878;SDS011;44660;42.664;23.266;2023-02-23T14:05:22;13.15;;;6.13;;
58878;SDS011;44660;42.664;23.266;2023-02-23T14:07:50;12.93;;;5.78;;
58878;SDS011;44660;42.664;23.266;2023-02-23T14:10:22;13.48;;;5.60;;
58878;SDS011;44660;42.664;23.266;2023-02-23T14:18:04;15.50;;;5.68;;
58878;SDS011;44660;42.664;23.266;2023-02-23T14:20:54;16.48;;;5.90;;
58878;SDS011;44660;42.664;23.266;2023-02-23T14:25:52;9.38;;;5.35;;
58878;SDS011;44660;42.664;23.266;2023-02-23T14:28:43;12.68;;;5.38;;
58878;SDS011;44660;42.664;23.266;2023-02-23T14:31:29;11.20;;;6.18;;
58878;SDS011;44660;42.664;23.266;2023-02-23T14:33:57;13.70;;;6.32;;
58878;SDS011;44660;42.664;23.266;2023-02-23T14:41:21;10.07;;;5.25;;
58878;SDS011;44660;42.664;23.266;2023-02-23T14:43:50;8.25;;;5.03;;
58878;SDS011;44660;42.664;23.266;2023-02-23T14:46:37;10.55;;;6.03;;
58878;SDS011;44660;42.664;23.266;2023-02-23T14:49:18;10.80;;;6.00;;
58878;SDS011;44660;42.664;23.266;2023-02-23T14:51:53;12.55;;;5.13;;
58878;SDS011;44660;42.664;23.266;2023-02-23T14:56:51;10.23;;;5.22;;
58878;SDS011;44660;42.664;23.266;2023-02-23T14:59:20;15.15;;;4.88;;
58878;SDS011;44660;42.664;23.266;2023-02-23T15:01:47;11.45;;;4.97;;
58878;SDS011;44660;42.664;23.266;2023-02-23T15:04:18;8.82;;;5.13;;
58878;SDS011;44660;42.664;23.266;2023-02-23T15:06:48;8.93;;;4.88;;
58878;SDS011;44660;42.664;23.266;2023-02-23T15:09:24;16.15;;;4.70;;
58878;SDS011;44660;42.664;23.266;2023-02-23T15:11:56;8.02;;;4.50;;
58878;SDS011;44660;42.664;23.266;2023-02-23T15:14:24;12.57;;;5.10;;
58878;SDS011;44660;42.664;23.266;2023-02-23T15:16:50;9.60;;;4.93;;
58878;SDS011;44660;42.664;23.266;2023-02-23T15:19:17;13.20;;;4.80;;
58878;SDS011;44660;42.664;23.266;2023-02-23T15:21:48;16.25;;;8.98;;
58878;SDS011;44660;42.664;23.266;2023-02-23T15:24:15;55.08;;;27.17;;
58878;SDS011;44660;42.664;23.266;2023-02-23T15:26:43;91.90;;;41.42;;
58878;SDS011;44660;42.664;23.266;2023-02-23T15:31:34;52.85;;;22.25;;
58878;SDS011;44660;42.664;23.266;2023-02-23T15:34:01;13.75;;;7.55;;
58878;SDS011;44660;42.664;23.266;2023-02-23T15:36:28;9.95;;;5.50;;
58878;SDS011;44660;42.664;23.266;2023-02-23T15:38:58;10.10;;;5.15;;
58878;SDS011;44660;42.664;23.266;2023-02-23T15:41:34;15.25;;;6.03;;
58878;SDS011;44660;42.664;23.266;2023-02-23T15:46:34;13.93;;;6.53;;
58878;SDS011;44660;42.664;23.266;2023-02-23T15:49:01;13.50;;;6.07;;
58878;SDS011;44660;42.664;23.266;2023-02-23T15:54:09;14.02;;;5.95;;
58878;SDS011;44660;42.664;23.266;2023-02-23T15:56:47;13.77;;;5.78;;
58878;SDS011;44660;42.664;23.266;2023-02-23T15:59:35;9.48;;;6.25;;
58878;SDS011;44660;42.664;23.266;2023-02-23T16:02:01;11.85;;;6.78;;
58878;SDS011;44660;42.664;23.266;2023-02-23T16:04:31;8.35;;;5.63;;
58878;SDS011;44660;42.664;23.266;2023-02-23T16:07:08;9.90;;;5.80;;
58878;SDS011;44660;42.664;23.266;2023-02-23T16:09:46;15.70;;;6.53;;
58878;SDS011;44660;42.664;23.266;2023-02-23T16:14:51;9.98;;;5.93;;
58878;SDS011;44660;42.664;23.266;2023-02-23T16:17:26;9.40;;;5.57;;
58878;SDS011;44660;42.664;23.266;2023-02-23T16:20:45;10.73;;;5.82;;
58878;SDS011;44660;42.664;23.266;2023-02-23T16:22:50;13.95;;;6.45;;
58878;SDS011;44660;42.664;23.266;2023-02-23T16:25:19;11.13;;;6.20;;
58878;SDS011;44660;42.664;23.266;2023-02-23T16:27:50;11.80;;;6.00;;
58878;SDS011;44660;42.664;23.266;2023-02-23T16:30:34;11.00;;;6.35;;
58878;SDS011;44660;42.664;23.266;2023-02-23T16:33:15;14.90;;;6.45;;
58878;SDS011;44660;42.664;23.266;2023-02-23T16:35:48;12.45;;;6.25;;
58878;SDS011;44660;42.664;23.266;2023-02-23T16:40:51;15.93;;;6.88;;
58878;SDS011;44660;42.664;23.266;2023-02-23T16:43:18;15.82;;;6.60;;
58878;SDS011;44660;42.664;23.266;2023-02-23T16:45:44;10.30;;;6.43;;
58878;SDS011;44660;42.664;23.266;2023-02-23T16:48:13;11.27;;;6.43;;
58878;SDS011;44660;42.664;23.266;2023-02-23T16:50:40;14.32;;;7.13;;
58878;SDS011;44660;42.664;23.266;2023-02-23T16:53:06;9.95;;;6.47;;
58878;SDS011;44660;42.664;23.266;2023-02-23T16:55:38;14.65;;;8.57;;
58878;SDS011;44660;42.664;23.266;2023-02-23T16:58:08;12.93;;;6.35;;